Time,TemperatureF,DewpointF,PressureIn,WindDirection,WindDirectionDegrees,WindSpeedMPH,WindSpeedGustMPH,Humidity,HourlyPrecipIn,Conditions,Clouds,dailyrainin,SoftwareType,DateUTC
2013-05-30 00:01:00,66.0,63.0,29.52,South,172,14.0,14.0,90,0.00,,---,0.00,VWS V14.01,2013-05-30 05:01:00,
2013-05-30 00:06:00,65.8,62.8,29.52,South,178,14.0,18.0,90,0.00,,---,0.00,VWS V14.01,2013-05-30 05:06:00,
2013-05-30 00:11:00,65.8,62.8,29.52,South,174,12.0,18.0,90,0.00,,---,0.00,VWS V14.01,2013-05-30 05:11:00,
2013-05-30 00:16:00,65.6,62.6,29.52,South,172,10.0,17.0,90,0.00,,---,0.00,VWS V14.01,2013-05-30 05:16:00,
2013-05-30 00:21:00,65.5,62.5,29.52,South,171,10.0,10.0,90,0.00,,---,0.00,VWS V14.01,2013-05-30 05:21:00,
2013-05-30 00:26:00,65.5,62.5,29.52,South,181,13.0,16.0,90,0.00,,---,0.00,VWS V14.01,2013-05-30 05:26:00,
2013-05-30 00:31:00,65.3,62.3,29.53,South,178,12.0,18.0,90,0.00,,---,0.00,VWS V14.01,2013-05-30 05:31:00,
2013-05-30 00:36:00,65.2,62.5,29.53,South,174,9.0,17.0,91,0.00,,---,0.00,VWS V14.01,2013-05-30 05:36:00,
2013-05-30 00:41:00,65.0,62.3,29.53,SSE,164,13.0,18.0,91,0.00,,---,0.00,VWS V14.01,2013-05-30 05:41:00,
2013-05-30 00:46:00,65.0,62.3,29.54,South,176,12.0,19.0,91,0.00,,---,0.00,VWS V14.01,2013-05-30 05:46:00,
2013-05-30 00:51:00,64.8,62.1,29.54,South,184,12.0,19.0,91,0.00,,---,0.00,VWS V14.01,2013-05-30 05:51:00,
2013-05-30 00:56:00,64.7,62.0,29.54,South,175,12.0,17.0,91,0.00,,---,0.00,VWS V14.01,2013-05-30 05:56:00,
2013-05-30 01:01:00,64.7,62.0,29.54,South,178,11.0,17.0,91,0.00,,---,0.00,VWS V14.01,2013-05-30 06:01:00,
2013-05-30 01:06:00,64.5,61.8,29.54,SSE,162,11.0,17.0,91,0.00,,---,0.00,VWS V14.01,2013-05-30 06:06:00,
2013-05-30 01:11:00,64.5,61.8,29.54,South,176,6.0,17.0,91,0.00,,---,0.00,VWS V14.01,2013-05-30 06:11:00,
2013-05-30 01:16:00,64.3,61.9,29.52,SE,144,6.0,12.0,92,0.00,,---,0.00,VWS V14.01,2013-05-30 06:16:00,
2013-05-30 01:21:00,64.3,61.9,29.52,SSE,154,10.0,12.0,92,0.00,,---,0.00,VWS V14.01,2013-05-30 06:21:00,
2013-05-30 01:26:00,64.2,62.1,29.52,SSE,161,6.0,10.0,93,0.00,,---,0.00,VWS V14.01,2013-05-30 06:26:00,
2013-05-30 01:31:00,64.0,61.9,29.52,SSE,158,10.0,12.0,93,0.00,,---,0.00,VWS V14.01,2013-05-30 06:31:00,
2013-05-30 01:36:00,64.0,62.2,29.52,SSE,154,7.0,11.0,94,0.00,,---,0.00,VWS V14.01,2013-05-30 06:36:00,
2013-05-30 01:41:00,63.9,62.1,29.52,SE,138,10.0,11.0,94,0.00,,---,0.00,VWS V14.01,2013-05-30 06:41:00,
2013-05-30 01:46:00,63.9,62.4,29.52,SE,141,11.0,14.0,95,0.00,,---,0.00,VWS V14.01,2013-05-30 06:46:00,
2013-05-30 01:51:00,63.9,62.4,29.52,SSE,148,7.0,14.0,95,0.00,,---,0.00,VWS V14.01,2013-05-30 06:51:00,
2013-05-30 01:56:00,63.9,62.1,29.52,South,174,8.0,14.0,94,0.00,,---,0.00,VWS V14.01,2013-05-30 06:56:00,
2013-05-30 02:01:00,63.7,62.2,29.50,SSE,155,7.0,14.0,95,0.00,,---,0.00,VWS V14.01,2013-05-30 07:01:00,
2013-05-30 02:06:00,63.9,62.4,29.50,SSE,162,10.0,19.0,95,0.00,,---,0.00,VWS V14.01,2013-05-30 07:06:00,
2013-05-30 02:11:00,64.0,62.2,29.50,SSE,157,9.0,19.0,94,0.00,,---,0.00,VWS V14.01,2013-05-30 07:11:00,
2013-05-30 02:16:00,64.0,62.2,29.49,SSE,150,7.0,15.0,94,0.00,,---,0.00,VWS V14.01,2013-05-30 07:16:00,
2013-05-30 02:21:00,63.9,62.1,29.49,SSE,161,9.0,15.0,94,0.00,,---,0.00,VWS V14.01,2013-05-30 07:21:00,
2013-05-30 02:26:00,63.7,62.2,29.49,South,174,13.0,13.0,95,0.00,,---,0.00,VWS V14.01,2013-05-30 07:26:00,
2013-05-30 02:31:00,63.7,62.2,29.49,SSE,168,13.0,16.0,95,0.00,,---,0.00,VWS V14.01,2013-05-30 07:31:00,
2013-05-30 02:36:00,63.7,62.2,29.49,South,182,12.0,14.0,95,0.00,,---,0.00,VWS V14.01,2013-05-30 07:36:00,
2013-05-30 02:41:00,63.9,62.4,29.49,SSE,164,15.0,18.0,95,0.00,,---,0.00,VWS V14.01,2013-05-30 07:41:00,
2013-05-30 02:46:00,64.0,62.2,29.48,South,169,13.0,18.0,94,0.00,,---,0.00,VWS V14.01,2013-05-30 07:46:00,
2013-05-30 02:51:00,64.0,62.2,29.48,South,176,10.0,20.0,94,0.00,,---,0.00,VWS V14.01,2013-05-30 07:51:00,
2013-05-30 02:56:00,64.0,62.2,29.48,South,175,17.0,18.0,94,0.00,,---,0.00,VWS V14.01,2013-05-30 07:56:00,
2013-05-30 03:01:00,64.2,62.4,29.48,South,174,19.0,21.0,94,0.00,,---,0.00,VWS V14.01,2013-05-30 08:01:00,
2013-05-30 03:06:00,64.2,62.4,29.48,South,182,14.0,20.0,94,0.00,,---,0.00,VWS V14.01,2013-05-30 08:06:00,
2013-05-30 03:11:00,64.2,62.4,29.48,South,182,16.0,20.0,94,0.00,,---,0.00,VWS V14.01,2013-05-30 08:11:00,
2013-05-30 03:16:00,64.2,62.4,29.47,SSW,198,12.0,18.0,94,0.00,,---,0.00,VWS V14.01,2013-05-30 08:16:00,
2013-05-30 03:21:00,64.2,62.4,29.47,SSE,161,10.0,18.0,94,0.00,,---,0.00,VWS V14.01,2013-05-30 08:21:00,
2013-05-30 03:26:00,64.2,62.1,29.47,SSE,150,15.0,18.0,93,0.00,,---,0.00,VWS V14.01,2013-05-30 08:26:00,
2013-05-30 03:31:00,64.0,61.9,29.46,South,178,6.0,18.0,93,0.00,,---,0.00,VWS V14.01,2013-05-30 08:31:00,
2013-05-30 03:36:00,64.0,62.2,29.46,South,169,9.0,13.0,94,0.00,,---,0.00,VWS V14.01,2013-05-30 08:36:00,
2013-05-30 03:41:00,63.9,62.1,29.46,SSE,167,9.0,13.0,94,0.00,,---,0.00,VWS V14.01,2013-05-30 08:41:00,
2013-05-30 03:45:00,63.9,62.1,29.47,SSE,164,14.0,14.0,94,0.00,,---,0.00,VWS V14.01,2013-05-30 08:45:00,
2013-05-30 03:50:00,64.0,62.2,29.47,South,169,12.0,16.0,94,0.00,,---,0.00,VWS V14.01,2013-05-30 08:50:00,
2013-05-30 03:55:00,64.0,62.2,29.47,SSE,167,8.0,13.0,94,0.00,,---,0.00,VWS V14.01,2013-05-30 08:55:00,
2013-05-30 04:00:00,64.0,61.9,29.46,SSE,161,10.0,16.0,93,0.00,,---,0.00,VWS V14.01,2013-05-30 09:00:00,
2013-05-30 04:05:00,64.0,61.9,29.46,SSE,152,5.0,17.0,93,0.00,,---,0.00,VWS V14.01,2013-05-30 09:05:00,
2013-05-30 04:10:00,63.9,61.8,29.46,SSE,150,10.0,17.0,93,0.00,,---,0.00,VWS V14.01,2013-05-30 09:10:00,
2013-05-30 04:15:00,63.9,62.1,29.44,SSE,152,11.0,11.0,94,0.00,,---,0.00,VWS V14.01,2013-05-30 09:15:00,
2013-05-30 04:20:00,63.9,61.8,29.44,SSE,165,11.0,14.0,93,0.00,,---,0.00,VWS V14.01,2013-05-30 09:20:00,
2013-05-30 04:25:00,63.9,62.1,29.44,SSE,157,7.0,13.0,94,0.00,,---,0.00,VWS V14.01,2013-05-30 09:25:00,
2013-05-30 04:30:00,63.7,62.0,29.45,SE,131,2.0,13.0,94,0.00,,---,0.00,VWS V14.01,2013-05-30 09:30:00,
2013-05-30 04:35:00,63.5,61.8,29.45,SE,124,3.0,10.0,94,0.00,,---,0.00,VWS V14.01,2013-05-30 09:35:00,
2013-05-30 04:40:00,63.4,62.0,29.45,SSE,151,6.0,10.0,95,0.00,,---,0.00,VWS V14.01,2013-05-30 09:40:00,
2013-05-30 04:45:00,63.2,62.0,29.44,ESE,120,3.0,9.0,96,0.00,,---,0.00,VWS V14.01,2013-05-30 09:45:00,
2013-05-30 04:50:00,63.2,62.0,29.44,ESE,120,2.0,9.0,96,0.00,,---,0.00,VWS V14.01,2013-05-30 09:50:00,
2013-05-30 04:55:00,63.4,62.2,29.44,ESE,114,3.0,8.0,96,0.00,,---,0.00,VWS V14.01,2013-05-30 09:55:00,
2013-05-30 05:00:00,63.4,62.2,29.43,SSE,155,3.0,9.0,96,0.00,,---,0.00,VWS V14.01,2013-05-30 10:00:00,
2013-05-30 05:05:00,63.5,62.3,29.43,ESE,123,6.0,7.0,96,0.00,,---,0.00,VWS V14.01,2013-05-30 10:05:00,
2013-05-30 05:10:00,63.7,62.8,29.43,SSE,150,4.0,11.0,97,0.00,,---,0.00,VWS V14.01,2013-05-30 10:10:00,
2013-05-30 05:15:00,64.0,63.1,29.43,SSE,147,9.0,13.0,97,0.00,,---,0.00,VWS V14.01,2013-05-30 10:15:00,
2013-05-30 05:20:00,64.3,63.4,29.43,SSE,160,10.0,14.0,97,0.00,,---,0.00,VWS V14.01,2013-05-30 10:20:00,
2013-05-30 05:25:00,64.5,63.3,29.43,SSE,161,11.0,12.0,96,0.00,,---,0.00,VWS V14.01,2013-05-30 10:25:00,
2013-05-30 05:30:00,64.7,63.5,29.43,SSE,161,6.0,13.0,96,0.00,,---,0.00,VWS V14.01,2013-05-30 10:30:00,
2013-05-30 05:35:00,64.8,63.6,29.43,SE,136,7.0,10.0,96,0.00,,---,0.00,VWS V14.01,2013-05-30 10:35:00,
2013-05-30 05:40:00,65.0,63.8,29.43,South,172,6.0,11.0,96,0.00,,---,0.00,VWS V14.01,2013-05-30 10:40:00,
2013-05-30 05:45:00,65.0,63.8,29.44,SSE,168,6.0,9.0,96,0.00,,---,0.00,VWS V14.01,2013-05-30 10:45:00,
2013-05-30 05:50:00,64.8,63.6,29.44,South,176,7.0,12.0,96,0.00,,---,0.00,VWS V14.01,2013-05-30 10:50:00,
2013-05-30 05:55:00,65.0,64.1,29.44,South,171,4.0,12.0,97,0.00,,---,0.00,VWS V14.01,2013-05-30 10:55:00,
2013-05-30 06:00:00,64.8,63.9,29.44,SSE,161,6.0,12.0,97,0.00,,---,0.00,VWS V14.01,2013-05-30 11:00:00,
2013-05-30 06:05:00,65.0,64.1,29.44,South,172,10.0,10.0,97,0.00,,---,0.00,VWS V14.01,2013-05-30 11:05:00,
2013-05-30 06:10:00,65.0,64.1,29.44,SSE,164,6.0,10.0,97,0.00,,---,0.00,VWS V14.01,2013-05-30 11:10:00,
2013-05-30 06:15:00,65.2,64.3,29.43,SE,140,2.0,10.0,97,0.00,,---,0.00,VWS V14.01,2013-05-30 11:15:00,
2013-05-30 06:20:00,65.2,64.3,29.43,SSE,158,5.0,10.0,97,0.00,,---,0.00,VWS V14.01,2013-05-30 11:20:00,
2013-05-30 06:25:00,65.2,64.3,29.43,SSE,164,8.0,8.0,97,0.00,,---,0.00,VWS V14.01,2013-05-30 11:25:00,
2013-05-30 06:30:00,65.2,64.3,29.42,SSE,152,4.0,8.0,97,0.01,,---,0.01,VWS V14.01,2013-05-30 11:30:00,
2013-05-30 06:35:00,65.3,64.4,29.42,South,172,6.0,8.0,97,0.01,,---,0.01,VWS V14.01,2013-05-30 11:35:00,
2013-05-30 06:40:00,65.5,64.3,29.42,SE,137,2.0,8.0,96,0.01,,---,0.01,VWS V14.01,2013-05-30 11:40:00,
2013-05-30 06:45:00,65.5,64.3,29.41,SSE,148,3.0,7.0,96,0.01,,---,0.01,VWS V14.01,2013-05-30 11:45:00,
2013-05-30 06:50:00,65.5,64.3,29.41,SSE,157,2.0,7.0,96,0.01,,---,0.01,VWS V14.01,2013-05-30 11:50:00,
2013-05-30 06:55:00,65.6,64.4,29.41,SE,141,3.0,5.0,96,0.01,,---,0.01,VWS V14.01,2013-05-30 11:55:00,
2013-05-30 07:00:00,65.8,64.6,29.42,SE,136,3.0,7.0,96,0.01,,---,0.01,VWS V14.01,2013-05-30 12:00:00,
2013-05-30 07:05:00,65.8,64.6,29.42,SSE,160,4.0,6.0,96,0.01,,---,0.01,VWS V14.01,2013-05-30 12:05:00,
2013-05-30 07:10:00,65.8,64.6,29.42,South,175,3.0,7.0,96,0.01,,---,0.01,VWS V14.01,2013-05-30 12:10:00,
2013-05-30 07:15:00,65.8,64.6,29.43,South,174,6.0,8.0,96,0.01,,---,0.01,VWS V14.01,2013-05-30 12:15:00,
2013-05-30 07:20:00,65.8,64.6,29.43,South,169,7.0,8.0,96,0.01,,---,0.01,VWS V14.01,2013-05-30 12:20:00,
2013-05-30 07:25:00,66.0,64.8,29.43,South,169,4.0,8.0,96,0.01,,---,0.01,VWS V14.01,2013-05-30 12:25:00,
2013-05-30 07:30:00,66.0,64.8,29.44,SSE,154,4.0,8.0,96,0.01,,---,0.01,VWS V14.01,2013-05-30 12:30:00,
2013-05-30 07:35:00,65.8,64.6,29.44,SSE,165,3.0,7.0,96,0.00,,---,0.01,VWS V14.01,2013-05-30 12:35:00,
2013-05-30 07:40:00,65.8,64.6,29.44,SSE,160,5.0,7.0,96,0.00,,---,0.01,VWS V14.01,2013-05-30 12:40:00,
2013-05-30 07:45:00,65.8,64.6,29.44,South,171,1.0,8.0,96,0.00,,---,0.01,VWS V14.01,2013-05-30 12:45:00,
2013-05-30 07:50:00,65.8,64.6,29.44,SSW,193,5.0,8.0,96,0.00,,---,0.01,VWS V14.01,2013-05-30 12:50:00,
2013-05-30 07:55:00,65.6,64.4,29.44,South,188,3.0,5.0,96,0.00,,---,0.01,VWS V14.01,2013-05-30 12:55:00,
2013-05-30 08:00:00,65.6,64.7,29.45,South,185,10.0,10.0,97,0.00,,---,0.01,VWS V14.01,2013-05-30 13:00:00,
2013-05-30 08:05:00,65.6,64.7,29.45,SSE,160,6.0,8.0,97,0.00,,---,0.01,VWS V14.01,2013-05-30 13:05:00,
2013-05-30 08:10:00,65.8,64.6,29.45,SSE,164,7.0,8.0,96,0.00,,---,0.01,VWS V14.01,2013-05-30 13:10:00,
2013-05-30 08:15:00,65.8,64.6,29.44,South,171,9.0,11.0,96,0.00,,---,0.01,VWS V14.01,2013-05-30 13:15:00,
2013-05-30 08:20:00,66.1,64.9,29.44,SSW,195,9.0,12.0,96,0.00,,---,0.01,VWS V14.01,2013-05-30 13:20:00,
2013-05-30 08:25:00,66.3,64.8,29.44,South,179,10.0,13.0,95,0.00,,---,0.01,VWS V14.01,2013-05-30 13:25:00,
2013-05-30 08:30:00,66.6,64.8,29.44,South,189,11.0,13.0,94,0.00,,---,0.01,VWS V14.01,2013-05-30 13:30:00,
2013-05-30 08:35:00,66.9,65.1,29.44,South,191,8.0,13.0,94,0.00,,---,0.01,VWS V14.01,2013-05-30 13:35:00,
2013-05-30 08:40:00,66.9,64.8,29.44,South,188,11.0,13.0,93,0.00,,---,0.01,VWS V14.01,2013-05-30 13:40:00,
2013-05-30 08:45:00,66.9,64.8,29.44,South,189,6.0,13.0,93,0.00,,---,0.01,VWS V14.01,2013-05-30 13:45:00,
2013-05-30 08:50:00,66.9,64.8,29.44,South,176,11.0,13.0,93,0.00,,---,0.01,VWS V14.01,2013-05-30 13:50:00,
2013-05-30 08:55:00,66.9,64.5,29.44,South,171,7.0,13.0,92,0.00,,---,0.01,VWS V14.01,2013-05-30 13:55:00,
2013-05-30 09:00:00,66.6,64.5,29.44,South,179,8.0,13.0,93,0.01,,---,0.02,VWS V14.01,2013-05-30 14:00:00,
2013-05-30 09:05:00,66.6,64.8,29.44,SSE,165,9.0,10.0,94,0.01,,---,0.02,VWS V14.01,2013-05-30 14:05:00,
2013-05-30 09:10:00,66.4,64.6,29.44,South,184,9.0,11.0,94,0.01,,---,0.02,VWS V14.01,2013-05-30 14:10:00,
2013-05-30 09:15:00,66.4,64.6,29.44,South,184,7.0,12.0,94,0.02,,---,0.03,VWS V14.01,2013-05-30 14:15:00,
2013-05-30 09:20:00,66.4,64.9,29.45,SSE,165,9.0,12.0,95,0.02,,---,0.03,VWS V14.01,2013-05-30 14:20:00,
2013-05-30 09:25:00,66.4,64.6,29.45,South,181,8.0,14.0,94,0.02,,---,0.03,VWS V14.01,2013-05-30 14:25:00,
2013-05-30 09:30:00,66.6,64.8,29.45,SSW,195,7.0,14.0,94,0.02,,---,0.03,VWS V14.01,2013-05-30 14:30:00,
2013-05-30 09:35:00,66.6,64.8,29.44,SSW,200,9.0,14.0,94,0.02,,---,0.03,VWS V14.01,2013-05-30 14:35:00,
2013-05-30 09:40:00,66.4,64.3,29.44,SW,222,9.0,20.0,93,0.03,,---,0.04,VWS V14.01,2013-05-30 14:40:00,
2013-05-30 09:45:00,66.1,64.0,29.44,SSW,198,14.0,21.0,93,0.03,,---,0.04,VWS V14.01,2013-05-30 14:45:00,
2013-05-30 09:50:00,65.6,64.1,29.45,SSW,209,11.0,24.0,95,0.04,,---,0.05,VWS V14.01,2013-05-30 14:50:00,
2013-05-30 09:55:00,65.3,64.1,29.45,SSW,196,10.0,20.0,96,0.05,,---,0.06,VWS V14.01,2013-05-30 14:55:00,
2013-05-30 10:00:00,65.6,64.7,29.45,SSW,199,8.0,20.0,97,0.05,,---,0.06,VWS V14.01,2013-05-30 15:00:00,
2013-05-30 10:05:00,66.0,65.1,29.45,South,186,13.0,19.0,97,0.04,,---,0.06,VWS V14.01,2013-05-30 15:05:00,
2013-05-30 10:10:00,66.4,65.2,29.45,SSW,195,14.0,19.0,96,0.04,,---,0.06,VWS V14.01,2013-05-30 15:10:00,
2013-05-30 10:15:00,66.6,65.1,29.45,SSW,199,19.0,19.0,95,0.04,,---,0.06,VWS V14.01,2013-05-30 15:15:00,
2013-05-30 10:20:00,66.4,64.6,29.45,South,176,16.0,21.0,94,0.04,,---,0.06,VWS V14.01,2013-05-30 15:20:00,
2013-05-30 10:25:00,66.4,64.3,29.45,South,186,13.0,20.0,93,0.03,,---,0.06,VWS V14.01,2013-05-30 15:25:00,
2013-05-30 10:30:00,66.6,64.2,29.45,South,186,19.0,22.0,92,0.03,,---,0.06,VWS V14.01,2013-05-30 15:30:00,
2013-05-30 10:35:00,66.9,64.2,29.45,SSW,213,17.0,20.0,91,0.03,,---,0.06,VWS V14.01,2013-05-30 15:35:00,
2013-05-30 10:40:00,67.4,64.4,29.45,SSW,193,13.0,26.0,90,0.03,,---,0.06,VWS V14.01,2013-05-30 15:40:00,
2013-05-30 10:45:00,67.4,64.4,29.45,SSW,196,11.0,20.0,90,0.02,,---,0.06,VWS V14.01,2013-05-30 15:45:00,
2013-05-30 10:50:00,67.6,64.2,29.44,SSW,200,17.0,21.0,89,0.02,,---,0.06,VWS V14.01,2013-05-30 15:50:00,
2013-05-30 10:55:00,67.8,63.5,29.44,SSW,192,16.0,22.0,86,0.01,,---,0.06,VWS V14.01,2013-05-30 15:55:00,
2013-05-30 11:00:00,67.8,63.5,29.44,South,185,13.0,22.0,86,0.01,,---,0.06,VWS V14.01,2013-05-30 16:00:00,
2013-05-30 11:05:00,67.9,63.9,29.44,SW,216,11.0,19.0,87,0.00,,---,0.06,VWS V14.01,2013-05-30 16:05:00,
2013-05-30 11:09:00,68.1,63.4,29.44,SSW,203,13.0,20.0,85,0.00,,---,0.06,VWS V14.01,2013-05-30 16:09:00,
2013-05-30 11:14:00,68.4,63.4,29.44,SSW,192,10.0,17.0,84,0.00,,---,0.06,VWS V14.01,2013-05-30 16:14:00,
2013-05-30 11:19:00,68.6,63.2,29.45,SW,222,21.0,21.0,83,0.00,,---,0.06,VWS V14.01,2013-05-30 16:19:00,
2013-05-30 11:24:00,68.9,63.5,29.45,South,189,13.0,19.0,83,0.00,,---,0.06,VWS V14.01,2013-05-30 16:24:00,
2013-05-30 11:29:00,69.6,63.2,29.45,SSW,202,12.0,19.0,80,0.00,,---,0.06,VWS V14.01,2013-05-30 16:29:00,
2013-05-30 11:34:00,69.6,63.5,29.45,South,188,10.0,17.0,81,0.00,,---,0.06,VWS V14.01,2013-05-30 16:34:00,
2013-05-30 11:39:00,69.4,64.0,29.45,SSW,193,13.0,20.0,83,0.00,,---,0.06,VWS V14.01,2013-05-30 16:39:00,
2013-05-30 11:44:00,69.4,62.6,29.45,SW,220,17.0,21.0,79,0.00,,---,0.06,VWS V14.01,2013-05-30 16:44:00,
2013-05-30 11:49:00,69.3,62.5,29.45,SSW,192,18.0,22.0,79,0.00,,---,0.06,VWS V14.01,2013-05-30 16:49:00,
2013-05-30 11:54:00,69.3,63.2,29.45,SSW,199,14.0,20.0,81,0.00,,---,0.06,VWS V14.01,2013-05-30 16:54:00,
2013-05-30 11:59:00,69.4,62.2,29.45,SSW,196,10.0,21.0,78,0.00,,---,0.06,VWS V14.01,2013-05-30 16:59:00,
2013-05-30 12:04:00,69.4,62.2,29.45,SSW,193,12.0,18.0,78,0.00,,---,0.06,VWS V14.01,2013-05-30 17:04:00,
2013-05-30 12:09:00,69.4,62.2,29.45,SSW,195,13.0,18.0,78,0.00,,---,0.06,VWS V14.01,2013-05-30 17:09:00,
2013-05-30 12:14:00,69.4,61.5,29.45,SSW,208,17.0,20.0,76,0.00,,---,0.06,VWS V14.01,2013-05-30 17:14:00,
2013-05-30 12:19:00,69.4,61.9,29.45,SSW,193,14.0,20.0,77,0.00,,---,0.06,VWS V14.01,2013-05-30 17:19:00,
2013-05-30 12:24:00,69.4,61.5,29.45,SSW,209,13.0,18.0,76,0.00,,---,0.06,VWS V14.01,2013-05-30 17:24:00,
2013-05-30 12:29:00,69.4,61.1,29.45,South,182,17.0,19.0,75,0.00,,---,0.06,VWS V14.01,2013-05-30 17:29:00,
2013-05-30 12:34:00,69.4,61.5,29.45,SSW,193,10.0,19.0,76,0.00,,---,0.06,VWS V14.01,2013-05-30 17:34:00,
2013-05-30 12:39:00,69.3,62.2,29.45,SSW,192,12.0,19.0,78,0.00,,---,0.06,VWS V14.01,2013-05-30 17:39:00,
2013-05-30 12:44:00,69.1,62.3,29.45,SSW,192,17.0,20.0,79,0.00,,---,0.06,VWS V14.01,2013-05-30 17:44:00,
2013-05-30 12:49:00,68.9,62.1,29.46,South,182,11.0,20.0,79,0.00,,---,0.06,VWS V14.01,2013-05-30 17:49:00,
2013-05-30 12:54:00,68.9,61.8,29.46,South,186,13.0,19.0,78,0.00,,---,0.06,VWS V14.01,2013-05-30 17:54:00,
2013-05-30 12:59:00,68.6,61.5,29.46,SSW,195,18.0,20.0,78,0.00,,---,0.06,VWS V14.01,2013-05-30 17:59:00,
2013-05-30 13:04:00,68.4,62.0,29.46,South,185,18.0,20.0,80,0.00,,---,0.06,VWS V14.01,2013-05-30 18:04:00,
2013-05-30 13:09:00,68.3,61.5,29.46,SSW,196,14.0,21.0,79,0.00,,---,0.06,VWS V14.01,2013-05-30 18:09:00,
2013-05-30 13:14:00,68.3,61.5,29.46,South,185,13.0,17.0,79,0.00,,---,0.06,VWS V14.01,2013-05-30 18:14:00,
2013-05-30 13:19:00,68.4,62.0,29.46,South,175,15.0,19.0,80,0.00,,---,0.06,VWS V14.01,2013-05-30 18:19:00,
2013-05-30 13:24:00,68.3,62.2,29.46,South,182,11.0,17.0,81,0.00,,---,0.06,VWS V14.01,2013-05-30 18:24:00,
2013-05-30 13:29:00,68.1,62.1,29.46,South,175,19.0,21.0,81,0.00,,---,0.06,VWS V14.01,2013-05-30 18:29:00,
2013-05-30 13:34:00,68.1,61.7,29.46,South,172,13.0,22.0,80,0.00,,---,0.06,VWS V14.01,2013-05-30 18:34:00,
2013-05-30 13:39:00,67.9,61.9,29.46,South,184,14.0,25.0,81,0.00,,---,0.06,VWS V14.01,2013-05-30 18:39:00,
2013-05-30 13:44:00,68.3,62.9,29.46,South,174,13.0,17.0,83,0.00,,---,0.06,VWS V14.01,2013-05-30 18:44:00,
2013-05-30 13:49:00,68.3,62.6,29.46,SSE,158,13.0,22.0,82,0.00,,---,0.06,VWS V14.01,2013-05-30 18:49:00,
2013-05-30 13:54:00,68.4,62.7,29.46,South,184,16.0,20.0,82,0.00,,---,0.06,VWS V14.01,2013-05-30 18:54:00,
2013-05-30 13:59:00,68.6,62.5,29.46,SSW,206,15.0,21.0,81,0.00,,---,0.06,VWS V14.01,2013-05-30 18:59:00,
2013-05-30 14:04:00,69.1,63.4,29.46,South,175,21.0,21.0,82,0.00,,---,0.06,VWS V14.01,2013-05-30 19:04:00,
2013-05-30 14:09:00,69.3,62.9,29.46,South,188,14.0,22.0,80,0.00,,---,0.06,VWS V14.01,2013-05-30 19:09:00,
2013-05-30 14:14:00,69.6,62.4,29.46,South,189,12.0,20.0,78,0.00,,---,0.06,VWS V14.01,2013-05-30 19:14:00,
2013-05-30 14:19:00,69.9,62.7,29.45,SSW,195,14.0,21.0,78,0.00,,---,0.06,VWS V14.01,2013-05-30 19:19:00,
2013-05-30 14:24:00,70.1,62.9,29.45,South,188,17.0,22.0,78,0.00,,---,0.06,VWS V14.01,2013-05-30 19:24:00,
2013-05-30 14:29:00,70.1,62.6,29.45,South,176,25.0,27.0,77,0.00,,---,0.06,VWS V14.01,2013-05-30 19:29:00,
2013-05-30 14:34:00,70.3,62.8,29.45,SSE,168,17.0,21.0,77,0.00,,---,0.06,VWS V14.01,2013-05-30 19:34:00,
2013-05-30 14:39:00,70.1,61.8,29.45,SSW,192,22.0,22.0,75,0.00,,---,0.06,VWS V14.01,2013-05-30 19:39:00,
2013-05-30 14:44:00,70.1,62.9,29.45,South,176,14.0,20.0,78,0.00,,---,0.06,VWS V14.01,2013-05-30 19:44:00,
2013-05-30 14:49:00,70.3,63.1,29.44,South,185,15.0,20.0,78,0.00,,---,0.06,VWS V14.01,2013-05-30 19:49:00,
2013-05-30 14:54:00,70.4,62.5,29.44,South,181,12.0,20.0,76,0.00,,---,0.06,VWS V14.01,2013-05-30 19:54:00,
2013-05-30 14:59:00,70.3,62.8,29.44,South,189,19.0,22.0,77,0.00,,---,0.06,VWS V14.01,2013-05-30 19:59:00,
2013-05-30 15:04:00,70.3,62.8,29.44,South,169,13.0,19.0,77,0.00,,---,0.06,VWS V14.01,2013-05-30 20:04:00,
2013-05-30 15:09:00,70.3,62.8,29.44,SSE,160,12.0,19.0,77,0.00,,---,0.06,VWS V14.01,2013-05-30 20:09:00,
2013-05-30 15:14:00,70.4,63.2,29.44,South,172,13.0,17.0,78,0.00,,---,0.06,VWS V14.01,2013-05-30 20:14:00,
2013-05-30 15:19:00,70.9,62.2,29.43,South,184,14.0,21.0,74,0.00,,---,0.06,VWS V14.01,2013-05-30 20:19:00,
2013-05-30 15:24:00,71.8,63.1,29.43,SSW,210,12.0,19.0,74,0.00,,---,0.06,VWS V14.01,2013-05-30 20:24:00,
2013-05-30 15:29:00,71.6,62.1,29.43,SSW,192,16.0,22.0,72,0.00,,---,0.06,VWS V14.01,2013-05-30 20:29:00,
2013-05-30 15:34:00,71.6,62.5,29.43,SSW,200,20.0,20.0,73,0.00,,---,0.06,VWS V14.01,2013-05-30 20:34:00,
2013-05-30 15:39:00,71.6,62.9,29.43,South,189,11.0,20.0,74,0.00,,---,0.06,VWS V14.01,2013-05-30 20:39:00,
2013-05-30 15:44:00,71.8,61.9,29.43,South,189,16.0,18.0,71,0.00,,---,0.06,VWS V14.01,2013-05-30 20:44:00,
2013-05-30 15:49:00,71.6,62.1,29.42,South,176,17.0,22.0,72,0.00,,---,0.06,VWS V14.01,2013-05-30 20:49:00,
2013-05-30 15:54:00,71.6,62.9,29.42,South,169,18.0,20.0,74,0.00,,---,0.06,VWS V14.01,2013-05-30 20:54:00,
2013-05-30 15:59:00,71.5,62.0,29.42,South,176,14.0,20.0,72,0.00,,---,0.06,VWS V14.01,2013-05-30 20:59:00,
2013-05-30 16:04:00,71.5,62.0,29.42,South,186,21.0,22.0,72,0.00,,---,0.06,VWS V14.01,2013-05-30 21:04:00,
2013-05-30 16:09:00,71.3,61.4,29.42,SSW,205,13.0,24.0,71,0.00,,---,0.06,VWS V14.01,2013-05-30 21:09:00,
2013-05-30 16:14:00,71.1,61.6,29.42,SSE,161,11.0,21.0,72,0.00,,---,0.06,VWS V14.01,2013-05-30 21:14:00,
2013-05-30 16:19:00,71.1,62.0,29.42,South,189,14.0,21.0,73,0.00,,---,0.06,VWS V14.01,2013-05-30 21:19:00,
2013-05-30 16:24:00,71.1,62.0,29.42,SSW,196,19.0,25.0,73,0.00,,---,0.06,VWS V14.01,2013-05-30 21:24:00,
2013-05-30 16:29:00,71.1,61.2,29.42,SSW,203,17.0,25.0,71,0.00,,---,0.06,VWS V14.01,2013-05-30 21:29:00,
2013-05-30 16:34:00,71.1,62.0,29.42,South,186,14.0,17.0,73,0.00,,---,0.06,VWS V14.01,2013-05-30 21:34:00,
2013-05-30 16:39:00,71.5,62.4,29.42,SSW,193,10.0,19.0,73,0.00,,---,0.06,VWS V14.01,2013-05-30 21:39:00,
2013-05-30 16:44:00,71.3,61.4,29.42,South,185,13.0,21.0,71,0.00,,---,0.06,VWS V14.01,2013-05-30 21:44:00,
2013-05-30 16:49:00,71.3,61.4,29.41,South,185,10.0,21.0,71,0.00,,---,0.06,VWS V14.01,2013-05-30 21:49:00,
2013-05-30 16:54:00,71.5,61.6,29.41,SSW,196,13.0,19.0,71,0.00,,---,0.06,VWS V14.01,2013-05-30 21:54:00,
2013-05-30 16:59:00,71.1,61.6,29.41,South,184,19.0,19.0,72,0.00,,---,0.06,VWS V14.01,2013-05-30 21:59:00,
2013-05-30 17:04:00,70.8,60.9,29.41,South,184,21.0,21.0,71,0.00,,---,0.06,VWS V14.01,2013-05-30 22:04:00,
2013-05-30 17:09:00,70.6,61.1,29.41,South,188,9.0,21.0,72,0.00,,---,0.06,VWS V14.01,2013-05-30 22:09:00,
2013-05-30 17:14:00,70.6,61.5,29.41,SSW,196,11.0,14.0,73,0.00,,---,0.06,VWS V14.01,2013-05-30 22:14:00,
2013-05-30 17:19:00,70.4,61.7,29.40,South,174,11.0,16.0,74,0.00,,---,0.06,VWS V14.01,2013-05-30 22:19:00,
2013-05-30 17:24:00,70.4,62.1,29.40,SSW,203,11.0,12.0,75,0.00,,---,0.06,VWS V14.01,2013-05-30 22:24:00,
2013-05-30 17:29:00,70.3,61.6,29.40,SSW,195,9.0,14.0,74,0.00,,---,0.06,VWS V14.01,2013-05-30 22:29:00,
2013-05-30 17:34:00,70.3,61.2,29.40,South,184,8.0,13.0,73,0.00,,---,0.06,VWS V14.01,2013-05-30 22:34:00,
2013-05-30 17:39:00,70.1,61.0,29.40,South,181,8.0,16.0,73,0.00,,---,0.06,VWS V14.01,2013-05-30 22:39:00,
2013-05-30 17:44:00,69.6,61.0,29.40,South,175,8.0,16.0,74,0.00,,---,0.06,VWS V14.01,2013-05-30 22:44:00,
2013-05-30 17:49:00,68.4,61.6,29.41,South,182,14.0,16.0,79,0.00,,---,0.06,VWS V14.01,2013-05-30 22:49:00,
2013-05-30 17:54:00,66.6,62.0,29.41,South,181,12.0,21.0,85,0.02,,---,0.08,VWS V14.01,2013-05-30 22:54:00,
2013-05-30 17:59:00,65.2,62.2,29.41,South,179,12.0,21.0,90,0.03,,---,0.09,VWS V14.01,2013-05-30 22:59:00,
2013-05-30 18:04:00,64.7,62.3,29.42,South,175,6.0,10.0,92,0.03,,---,0.09,VWS V14.01,2013-05-30 23:04:00,
2013-05-30 18:09:00,64.5,62.4,29.42,South,174,5.0,10.0,93,0.04,,---,0.10,VWS V14.01,2013-05-30 23:09:00,
2013-05-30 18:14:00,64.5,62.7,29.42,South,175,7.0,8.0,94,0.04,,---,0.10,VWS V14.01,2013-05-30 23:14:00,
2013-05-30 18:19:00,64.5,63.0,29.42,SSE,160,6.0,8.0,95,0.04,,---,0.10,VWS V14.01,2013-05-30 23:19:00,
2013-05-30 18:24:00,64.5,63.0,29.42,SSE,167,6.0,8.0,95,0.04,,---,0.10,VWS V14.01,2013-05-30 23:24:00,
2013-05-30 18:29:00,64.7,63.2,29.42,South,178,3.0,8.0,95,0.04,,---,0.10,VWS V14.01,2013-05-30 23:29:00,
2013-05-30 18:34:00,64.8,63.6,29.41,SSE,157,3.0,6.0,96,0.04,,---,0.10,VWS V14.01,2013-05-30 23:34:00,
2013-05-30 18:39:00,64.7,63.5,29.41,SSE,167,3.0,8.0,96,0.04,,---,0.10,VWS V14.01,2013-05-30 23:39:00,
2013-05-30 18:44:00,64.7,63.5,29.41,South,178,6.0,10.0,96,0.04,,---,0.10,VWS V14.01,2013-05-30 23:44:00,
2013-05-30 18:49:00,65.0,63.8,29.41,SW,217,5.0,10.0,96,0.04,,---,0.10,VWS V14.01,2013-05-30 23:49:00,
2013-05-30 18:54:00,65.0,63.8,29.41,South,175,4.0,6.0,96,0.03,,---,0.10,VWS V14.01,2013-05-30 23:54:00,
2013-05-30 18:59:00,65.3,64.1,29.41,South,186,5.0,7.0,96,0.03,,---,0.10,VWS V14.01,2013-05-30 23:59:00,
2013-05-30 19:04:00,65.6,64.4,29.41,SSE,165,5.0,7.0,96,0.01,,---,0.10,VWS V14.01,2013-05-31 00:04:00,
2013-05-30 19:09:00,65.8,64.3,29.41,South,181,5.0,7.0,95,0.01,,---,0.10,VWS V14.01,2013-05-31 00:09:00,
2013-05-30 19:14:00,65.8,64.3,29.41,SSE,161,5.0,7.0,95,0.00,,---,0.10,VWS V14.01,2013-05-31 00:14:00,
2013-05-30 19:18:00,66.0,64.2,29.39,SE,145,2.0,8.0,94,0.00,,---,0.10,VWS V14.01,2013-05-31 00:18:00,
2013-05-30 19:23:00,66.1,64.3,29.39,South,175,5.0,6.0,94,0.00,,---,0.10,VWS V14.01,2013-05-31 00:23:00,
2013-05-30 19:28:00,66.3,63.9,29.39,SSE,164,7.0,10.0,92,0.00,,---,0.10,VWS V14.01,2013-05-31 00:28:00,
2013-05-30 19:33:00,66.3,63.6,29.39,SSW,193,6.0,10.0,91,0.00,,---,0.10,VWS V14.01,2013-05-31 00:33:00,
2013-05-30 19:38:00,66.3,63.3,29.39,South,188,6.0,12.0,90,0.00,,---,0.10,VWS V14.01,2013-05-31 00:38:00,
2013-05-30 19:43:00,66.3,63.3,29.39,SSW,199,11.0,11.0,90,0.00,,---,0.10,VWS V14.01,2013-05-31 00:43:00,
2013-05-30 19:48:00,66.3,63.3,29.40,South,188,10.0,11.0,90,0.00,,---,0.10,VWS V14.01,2013-05-31 00:48:00,
2013-05-30 19:53:00,66.1,63.1,29.40,SSE,167,7.0,8.0,90,0.00,,---,0.10,VWS V14.01,2013-05-31 00:53:00,
2013-05-30 19:58:00,66.1,63.1,29.40,South,175,6.0,11.0,90,0.00,,---,0.10,VWS V14.01,2013-05-31 00:58:00,
2013-05-30 20:03:00,66.0,63.0,29.41,SSE,165,5.0,8.0,90,0.00,,---,0.10,VWS V14.01,2013-05-31 01:03:00,
2013-05-30 20:08:00,66.0,63.3,29.41,SSE,157,7.0,9.0,91,0.00,,---,0.10,VWS V14.01,2013-05-31 01:08:00,
2013-05-30 20:13:00,65.8,63.1,29.41,South,169,7.0,10.0,91,0.00,,---,0.10,VWS V14.01,2013-05-31 01:13:00,
2013-05-30 20:18:00,65.8,63.4,29.41,SSE,167,7.0,10.0,92,0.00,,---,0.10,VWS V14.01,2013-05-31 01:18:00,
2013-05-30 20:23:00,65.6,63.2,29.41,South,171,8.0,10.0,92,0.00,,---,0.10,VWS V14.01,2013-05-31 01:23:00,
2013-05-30 20:28:00,65.6,62.9,29.41,SSW,203,7.0,11.0,91,0.00,,---,0.10,VWS V14.01,2013-05-31 01:28:00,
2013-05-30 20:33:00,65.5,62.5,29.41,South,188,6.0,10.0,90,0.00,,---,0.10,VWS V14.01,2013-05-31 01:33:00,
2013-05-30 20:38:00,65.3,62.3,29.41,South,186,7.0,11.0,90,0.00,,---,0.10,VWS V14.01,2013-05-31 01:38:00,
2013-05-30 20:43:00,65.3,62.6,29.41,South,189,8.0,10.0,91,0.00,,---,0.10,VWS V14.01,2013-05-31 01:43:00,
2013-05-30 20:48:00,65.2,62.5,29.41,South,176,7.0,12.0,91,0.00,,---,0.10,VWS V14.01,2013-05-31 01:48:00,
2013-05-30 20:53:00,65.2,62.5,29.41,SSW,193,7.0,11.0,91,0.00,,---,0.10,VWS V14.01,2013-05-31 01:53:00,
2013-05-30 20:58:00,65.0,62.6,29.41,South,181,5.0,11.0,92,0.00,,---,0.10,VWS V14.01,2013-05-31 01:58:00,
2013-05-30 21:03:00,64.8,62.4,29.41,SSW,193,6.0,8.0,92,0.00,,---,0.10,VWS V14.01,2013-05-31 02:03:00,
2013-05-30 21:08:00,64.8,62.4,29.41,South,179,7.0,10.0,92,0.00,,---,0.10,VWS V14.01,2013-05-31 02:08:00,
2013-05-30 21:13:00,64.8,62.4,29.41,South,188,6.0,10.0,92,0.00,,---,0.10,VWS V14.01,2013-05-31 02:13:00,
2013-05-30 21:18:00,64.7,62.6,29.41,South,188,6.0,10.0,93,0.00,,---,0.10,VWS V14.01,2013-05-31 02:18:00,
2013-05-30 21:23:00,64.7,62.6,29.41,South,186,5.0,8.0,93,0.00,,---,0.10,VWS V14.01,2013-05-31 02:23:00,
2013-05-30 21:28:00,64.5,62.4,29.41,South,181,5.0,8.0,93,0.00,,---,0.10,VWS V14.01,2013-05-31 02:28:00,
2013-05-30 21:33:00,64.5,62.4,29.41,South,181,6.0,7.0,93,0.00,,---,0.10,VWS V14.01,2013-05-31 02:33:00,
2013-05-30 21:38:00,64.5,62.4,29.41,South,179,5.0,7.0,93,0.00,,---,0.10,VWS V14.01,2013-05-31 02:38:00,
2013-05-30 21:43:00,64.5,62.4,29.41,South,189,5.0,6.0,93,0.00,,---,0.10,VWS V14.01,2013-05-31 02:43:00,
2013-05-30 21:48:00,64.5,62.4,29.40,South,188,3.0,7.0,93,0.00,,---,0.10,VWS V14.01,2013-05-31 02:48:00,
2013-05-30 21:53:00,64.3,62.2,29.40,South,188,5.0,7.0,93,0.00,,---,0.10,VWS V14.01,2013-05-31 02:53:00,
2013-05-30 21:58:00,64.3,62.5,29.40,South,188,6.0,7.0,94,0.00,,---,0.10,VWS V14.01,2013-05-31 02:58:00,
2013-05-30 22:03:00,64.2,62.4,29.40,South,188,5.0,6.0,94,0.00,,---,0.10,VWS V14.01,2013-05-31 03:03:00,
2013-05-30 22:08:00,64.2,62.4,29.40,South,189,6.0,6.0,94,0.00,,---,0.10,VWS V14.01,2013-05-31 03:08:00,
2013-05-30 22:13:00,64.2,62.7,29.40,South,185,5.0,5.0,95,0.00,,---,0.10,VWS V14.01,2013-05-31 03:13:00,
2013-05-30 22:18:00,64.2,62.7,29.40,South,172,5.0,6.0,95,0.00,,---,0.10,VWS V14.01,2013-05-31 03:18:00,
2013-05-30 22:23:00,64.2,62.7,29.40,South,169,6.0,9.0,95,0.00,,---,0.10,VWS V14.01,2013-05-31 03:23:00,
2013-05-30 22:28:00,64.2,62.7,29.40,South,184,5.0,9.0,95,0.00,,---,0.10,VWS V14.01,2013-05-31 03:28:00,
2013-05-30 22:33:00,64.0,62.5,29.41,South,172,8.0,8.0,95,0.00,,---,0.10,VWS V14.01,2013-05-31 03:33:00,
2013-05-30 22:38:00,64.0,62.8,29.41,South,172,7.0,9.0,96,0.00,,---,0.10,VWS V14.01,2013-05-31 03:38:00,
2013-05-30 22:43:00,63.9,62.7,29.41,SSE,165,7.0,8.0,96,0.00,,---,0.10,VWS V14.01,2013-05-31 03:43:00,
2013-05-30 22:48:00,63.9,63.0,29.41,South,169,11.0,13.0,97,0.00,,---,0.10,VWS V14.01,2013-05-31 03:48:00,
2013-05-30 22:53:00,64.0,63.1,29.41,South,179,11.0,11.0,97,0.00,,---,0.10,VWS V14.01,2013-05-31 03:53:00,
2013-05-30 22:58:00,64.0,62.8,29.41,South,186,10.0,14.0,96,0.00,,---,0.10,VWS V14.01,2013-05-31 03:58:00,
2013-05-30 23:01:00,64.2,63.0,29.41,South,175,11.0,14.0,96,0.00,,---,0.10,VWS V14.01,2013-05-31 04:01:00,
2013-05-30 23:06:00,64.2,63.0,29.41,South,178,8.0,12.0,96,0.00,,---,0.10,VWS V14.01,2013-05-31 04:06:00,
2013-05-30 23:11:00,64.0,62.5,29.41,South,186,6.0,12.0,95,0.00,,---,0.10,VWS V14.01,2013-05-31 04:11:00,
2013-05-30 23:16:00,64.0,62.8,29.40,SSE,167,12.0,13.0,96,0.00,,---,0.10,VWS V14.01,2013-05-31 04:16:00,
2013-05-30 23:21:00,64.0,62.5,29.40,South,191,9.0,14.0,95,0.00,,---,0.10,VWS V14.01,2013-05-31 04:21:00,
2013-05-30 23:26:00,64.0,62.5,29.40,South,172,12.0,13.0,95,0.00,,---,0.10,VWS V14.01,2013-05-31 04:26:00,
2013-05-30 23:31:00,64.0,62.2,29.40,South,189,12.0,14.0,94,0.00,,---,0.10,VWS V14.01,2013-05-31 04:31:00,
2013-05-30 23:36:00,64.0,62.2,29.40,South,181,12.0,14.0,94,0.00,,---,0.10,VWS V14.01,2013-05-31 04:36:00,
2013-05-30 23:41:00,64.0,62.2,29.40,SSW,200,10.0,14.0,94,0.00,,---,0.10,VWS V14.01,2013-05-31 04:41:00,
2013-05-30 23:46:00,63.9,62.1,29.40,SSW,206,8.0,11.0,94,0.00,,---,0.10,VWS V14.01,2013-05-31 04:46:00,
2013-05-30 23:51:00,63.9,62.1,29.40,SSW,192,11.0,12.0,94,0.00,,---,0.10,VWS V14.01,2013-05-31 04:51:00,
2013-05-30 23:56:00,63.7,62.0,29.40,South,191,11.0,12.0,94,0.00,,---,0.10,VWS V14.01,2013-05-31 04:56:00,